Αρχική σελίδα
METAR-TAF:

METAR-TAF

Αεροδρόμια :

Wrigley, Βορειοδυτικά Εδάφη, Καναδάς

γεωγραφικό πλάτος: 63-13N, γεωγραφικό μήκος: 123-26W, υψόμετρο: 150 μ

Παρών καιρός

Η αναφορά έγινε 4 ώρες και 47 λεπτά πριν, στις 22:00 UTC
Άνεμος 6 kt από , μεταβλητός μεταξύ Δ και Β/BΔ
Θερμοκρασία 0°C
Υγρασία 37%
Πίεση 1025 hPa
Ορατότητα: 24.1 χλμ
Λίγα νέφη σε ύψος 3500 πόδια
Λίγα νέφη σε ύψος 6700 πόδια
Αρκετά νέφη σε ύψος 10000 πόδια

METAR: CYWY 252200Z 31006KT 260V340 15SM FEW035 FEW067 BKN100 M00/M13 A3028 RMK SC1AC1AC6 SC TR VIRGA SW / LAST SFTD OBS / NEXT 261400 UTC SLP266

Χρόνος: 20:47 (02:47 UTC)


TAF: λείπει

Μετεωρολογικές αναφορές και προγνώσεις για περισσότερα από 4000 αεροδρόμια (δελτία METAR και TAF).

Οι διαθέσιμοι σταθμοί απεικονίζονται στο χάρτη με κίτρινες και κόκκινες κουκκίδες.

Μετακινήστε το ποντίκι πάνω από τις κουκκίδες για να δείτε το όνομα του σταθμού.

Στη συνέχεια, κάντε κλικ για να δείτε τις μετεωρολογικές αναφορές και τις προγνώσεις καιρού.

Για να αλλάξετε το χάρτη: κάντε κλικ στα πράσινα κουμπιά με τον μαύρο σταυρό για να ζουμάρετε, στο πράσινο κουμπί με την παύλα για να αφαιρέσετε το ζουμ ή στα πράσινα βέλη για να αντιπαραβάλλετε χάρτες.


METAR-TAF: